createdAt,value
2019-05-21T00:02:16.660Z,53.73
2019-05-21T00:04:45.128Z,52.80
2019-05-21T00:07:13.591Z,51.90
2019-05-21T00:09:42.083Z,48.93
2019-05-21T00:12:10.555Z,52.67
2019-05-21T00:14:39.062Z,51.50
2019-05-21T00:17:07.543Z,52.03
2019-05-21T00:19:36.035Z,53.27
2019-05-21T00:22:04.530Z,52.70
2019-05-21T00:24:32.959Z,51.07
2019-05-21T00:27:01.524Z,53.60
2019-05-21T00:29:47.671Z,51.90
2019-05-21T00:32:34.276Z,52.40
2019-05-21T00:35:22.447Z,51.87
2019-05-21T00:38:09.127Z,54.43
2019-05-21T00:40:55.556Z,50.10
2019-05-21T00:43:43.165Z,49.97
2019-05-21T00:46:11.664Z,52.03
2019-05-21T00:48:40.151Z,52.90
2019-05-21T00:51:08.541Z,48.27
2019-05-21T00:53:37.005Z,49.40
2019-05-21T00:56:05.476Z,47.10
2019-05-21T00:58:33.871Z,47.23
2019-05-21T01:01:02.335Z,43.90
2019-05-21T01:03:30.833Z,44.27
2019-05-21T01:05:59.296Z,42.40
2019-05-21T01:08:27.781Z,41.97
2019-05-21T01:10:56.264Z,42.33
2019-05-21T01:13:24.725Z,40.43
2019-05-21T01:15:53.210Z,37.90
2019-05-21T01:18:23.032Z,34.93
2019-05-21T01:20:51.652Z,34.57
2019-05-21T01:23:20.132Z,31.20
2019-05-21T01:25:48.631Z,29.43
2019-05-21T01:28:17.007Z,30.50
2019-05-21T01:30:45.464Z,30.77
2019-05-21T01:33:13.971Z,31.17
2019-05-21T01:35:42.351Z,29.40
2019-05-21T01:38:10.946Z,30.97
2019-05-21T01:40:39.451Z,30.30
2019-05-21T01:43:07.937Z,30.63
2019-05-21T01:45:36.425Z,28.33
2019-05-21T01:48:04.919Z,28.27
2019-05-21T01:50:33.395Z,28.30
2019-05-21T01:53:01.876Z,29.20
2019-05-21T01:55:30.339Z,27.87
2019-05-21T01:57:58.826Z,27.47
2019-05-21T02:00:27.319Z,29.37
2019-05-21T02:02:55.789Z,30.10
2019-05-21T02:05:32.537Z,30.63
2019-05-21T02:07:54.419Z,29.63
2019-05-21T02:10:22.936Z,29.07
2019-05-21T02:12:51.400Z,30.63
2019-05-21T02:15:19.909Z,33.10
2019-05-21T02:17:48.590Z,32.57
2019-05-21T02:20:17.083Z,33.07
2019-05-21T02:22:45.631Z,32.63
2019-05-21T02:25:14.242Z,33.27
2019-05-21T02:27:42.645Z,33.83
2019-05-21T02:30:12.029Z,33.67
2019-05-21T02:32:40.616Z,37.23
2019-05-21T02:35:09.673Z,35.47
2019-05-21T02:37:38.148Z,38.10
2019-05-21T02:40:06.784Z,39.93
2019-05-21T02:42:35.334Z,39.47
2019-05-21T02:45:04.712Z,42.17
2019-05-21T02:47:33.134Z,41.10
2019-05-21T02:50:02.818Z,42.97
2019-05-21T02:52:31.273Z,43.60
2019-05-21T02:54:59.752Z,45.87
2019-05-21T02:57:38.579Z,47.17
2019-05-21T03:00:08.694Z,48.83
2019-05-21T03:02:39.331Z,49.43
2019-05-21T03:05:26.932Z,48.27
2019-05-21T03:07:55.384Z,46.13
2019-05-21T03:10:23.840Z,48.10
2019-05-21T03:12:52.390Z,50.23
2019-05-21T03:15:21.009Z,51.00
2019-05-21T03:17:49.507Z,51.40
2019-05-21T03:20:18.044Z,51.40
2019-05-21T03:22:46.552Z,52.97
2019-05-21T03:25:15.024Z,52.00
2019-05-21T03:27:43.584Z,50.53
2019-05-21T03:30:12.135Z,51.50
2019-05-21T03:32:41.004Z,50.23
2019-05-21T03:35:10.970Z,50.30
2019-05-21T03:37:39.362Z,50.13
2019-05-21T03:40:08.017Z,49.03
2019-05-21T03:42:36.513Z,49.13
2019-05-21T03:45:07.752Z,52.80
2019-05-21T03:47:35.158Z,48.17
2019-05-21T03:50:03.876Z,51.30
2019-05-21T03:52:32.344Z,51.83
2019-05-21T03:55:03.051Z,52.13
2019-05-21T03:57:31.238Z,51.77
2019-05-21T03:59:59.706Z,51.83
2019-05-21T04:02:28.208Z,53.97
2019-05-21T04:04:56.798Z,52.73
2019-05-21T04:07:25.254Z,50.83
2019-05-21T04:09:53.722Z,54.83
2019-05-21T04:12:22.225Z,53.20
2019-05-21T04:14:54.836Z,51.30
2019-05-21T04:17:42.572Z,53.47
2019-05-21T04:20:11.841Z,51.60
2019-05-21T04:22:52.330Z,52.83
2019-05-21T04:25:21.537Z,53.27
2019-05-21T04:27:50.004Z,51.30
2019-05-21T04:30:18.528Z,50.67
2019-05-21T04:32:47.279Z,50.57
2019-05-21T04:35:16.366Z,50.10
2019-05-21T04:37:44.917Z,53.37
2019-05-21T04:40:14.181Z,51.13
2019-05-21T04:42:42.597Z,52.00
2019-05-21T04:45:11.116Z,50.80
2019-05-21T04:47:39.975Z,50.80
2019-05-21T04:50:08.457Z,52.03
2019-05-21T04:52:37.548Z,49.53
2019-05-21T04:55:06.092Z,51.37
2019-05-21T04:57:37.262Z,54.13
2019-05-21T05:00:05.006Z,50.73
2019-05-21T05:02:33.465Z,51.33
2019-05-21T05:05:02.045Z,54.87
2019-05-21T05:07:30.616Z,52.57
2019-05-21T05:09:59.071Z,50.93
2019-05-21T05:12:27.647Z,51.47
2019-05-21T05:14:56.100Z,51.20
2019-05-21T05:17:24.554Z,48.97
2019-05-21T05:19:53.051Z,52.70
2019-05-21T05:22:21.555Z,51.33
2019-05-21T05:24:50.274Z,54.70
2019-05-21T05:27:18.863Z,47.83
2019-05-21T05:29:47.376Z,48.50
2019-05-21T05:32:15.876Z,48.47
2019-05-21T05:34:44.406Z,49.77
2019-05-21T05:37:12.864Z,44.47
2019-05-21T05:39:41.349Z,44.80
2019-05-21T05:42:09.765Z,43.27
2019-05-21T05:44:38.235Z,44.10
2019-05-21T05:47:06.696Z,45.73
2019-05-21T05:49:39.736Z,42.00
2019-05-21T05:52:08.209Z,42.70
2019-05-21T05:54:36.644Z,43.00
2019-05-21T05:57:05.181Z,43.40
2019-05-21T05:59:33.588Z,44.30
2019-05-21T06:02:02.153Z,45.30
2019-05-21T06:04:30.753Z,46.00
2019-05-21T06:06:59.242Z,43.67
2019-05-21T06:09:27.632Z,43.30
2019-05-21T06:11:56.441Z,42.33
2019-05-21T06:14:24.997Z,38.53
2019-05-21T06:16:53.419Z,38.97
2019-05-21T06:19:21.940Z,37.17
2019-05-21T06:21:50.461Z,36.40
2019-05-21T06:24:18.973Z,37.40
2019-05-21T06:26:47.607Z,38.37
2019-05-21T06:29:16.081Z,36.17
2019-05-21T06:31:44.743Z,33.63
2019-05-21T06:34:13.263Z,32.10
2019-05-21T06:36:41.722Z,33.50
2019-05-21T06:39:10.203Z,32.20
2019-05-21T06:41:38.896Z,30.13
2019-05-21T06:44:07.395Z,31.60
2019-05-21T06:46:35.980Z,32.00
2019-05-21T06:49:04.653Z,30.50
2019-05-21T06:51:33.133Z,30.63
2019-05-21T06:54:01.615Z,29.93
2019-05-21T06:56:30.160Z,29.37
2019-05-21T06:58:58.777Z,29.27
2019-05-21T07:01:29.273Z,27.60
2019-05-21T07:03:57.569Z,27.33
2019-05-21T07:06:26.046Z,27.83
2019-05-21T07:08:54.536Z,28.77
2019-05-21T07:11:23.007Z,23.47
2019-05-21T07:13:51.503Z,26.47
2019-05-21T07:16:20.084Z,27.27
2019-05-21T07:18:48.492Z,25.43
2019-05-21T07:21:16.998Z,27.60
2019-05-21T07:23:48.176Z,26.93
2019-05-21T07:26:16.661Z,26.10
2019-05-21T07:28:45.223Z,27.23
2019-05-21T07:31:17.223Z,23.93
2019-05-21T07:33:43.922Z,23.33
2019-05-21T07:36:12.397Z,22.80
2019-05-21T07:38:52.528Z,22.87
2019-05-21T07:41:11.256Z,23.80
2019-05-21T07:43:39.677Z,24.07
2019-05-21T07:46:08.276Z,23.30
2019-05-21T07:48:36.763Z,24.43
2019-05-21T07:51:05.237Z,22.53
2019-05-21T07:53:33.644Z,22.90
2019-05-21T07:56:02.187Z,24.60
2019-05-21T07:58:30.769Z,24.20
2019-05-21T08:01:01.216Z,23.53
2019-05-21T08:03:29.572Z,24.90
2019-05-21T08:05:58.047Z,25.53
2019-05-21T08:08:26.540Z,26.70
2019-05-21T08:10:55.009Z,26.77
2019-05-21T08:13:23.392Z,24.50
2019-05-21T08:15:51.837Z,24.10
2019-05-21T08:18:21.013Z,25.70
2019-05-21T08:20:49.486Z,23.23
2019-05-21T08:23:18.009Z,24.23
2019-05-21T08:25:46.484Z,24.50
2019-05-21T08:28:14.938Z,24.10
2019-05-21T08:30:43.459Z,25.03
2019-05-21T08:33:11.951Z,22.43
2019-05-21T08:35:40.433Z,22.90
2019-05-21T08:38:09.029Z,23.33
2019-05-21T08:40:52.574Z,23.40
2019-05-21T08:43:22.195Z,22.53
2019-05-21T08:45:51.018Z,21.67
2019-05-21T08:48:19.505Z,23.43
2019-05-21T08:50:48.066Z,21.83
2019-05-21T08:53:16.612Z,20.73
2019-05-21T08:55:45.104Z,19.97
2019-05-21T08:58:13.626Z,22.37
2019-05-21T09:00:42.117Z,21.57
2019-05-21T09:03:11.984Z,22.37
2019-05-21T09:05:40.824Z,21.80
2019-05-21T09:08:09.488Z,22.03
2019-05-21T09:10:40.774Z,21.97
2019-05-21T09:13:18.017Z,22.03
2019-05-21T09:15:46.615Z,19.27
2019-05-21T09:18:15.075Z,20.47
2019-05-21T09:20:43.927Z,19.90
2019-05-21T09:23:12.585Z,20.30
2019-05-21T09:25:41.079Z,19.33
2019-05-21T09:28:09.602Z,19.43
2019-05-21T09:30:38.090Z,19.67
2019-05-21T09:33:06.559Z,20.57
2019-05-21T09:35:34.983Z,20.83
2019-05-21T09:38:03.520Z,19.80
2019-05-21T09:40:32.028Z,22.23
2019-05-21T09:43:00.569Z,19.80
2019-05-21T09:45:29.048Z,21.27
2019-05-21T09:47:57.579Z,21.03
2019-05-21T09:50:26.232Z,20.43
2019-05-21T09:53:19.393Z,20.07
2019-05-21T09:55:47.858Z,18.80
2019-05-21T09:58:32.816Z,19.37
2019-05-21T10:01:16.245Z,21.50
2019-05-21T10:03:47.651Z,19.83
2019-05-21T10:06:16.116Z,19.60
2019-05-21T10:08:44.610Z,19.20
2019-05-21T10:11:13.099Z,19.07
2019-05-21T10:13:41.770Z,18.07
2019-05-21T10:16:10.390Z,20.03
2019-05-21T10:18:38.891Z,18.10
2019-05-21T10:21:07.360Z,18.90
2019-05-21T10:23:35.868Z,18.80
2019-05-21T10:26:04.426Z,19.33
2019-05-21T10:28:32.995Z,17.67
2019-05-21T10:31:01.494Z,18.97
2019-05-21T10:33:30.006Z,20.20
2019-05-21T10:35:58.699Z,18.53
2019-05-21T10:38:27.110Z,19.27
2019-05-21T10:44:05.587Z,21.23
2019-05-21T10:46:34.371Z,20.53
2019-05-21T10:49:02.919Z,22.00
2019-05-21T10:51:32.213Z,20.93
2019-05-21T10:54:00.856Z,22.50
2019-05-21T10:56:46.430Z,21.33
2019-05-21T10:58:59.590Z,22.23
2019-05-21T11:01:35.906Z,23.10
2019-05-21T11:04:39.064Z,23.27
2019-05-21T11:07:09.128Z,23.83
2019-05-21T11:09:37.720Z,24.93
2019-05-21T11:12:06.900Z,25.87
2019-05-21T11:14:35.653Z,27.13
2019-05-21T11:17:29.399Z,27.03
2019-05-21T11:19:58.046Z,24.77
2019-05-21T11:22:26.844Z,26.17
2019-05-21T11:24:55.396Z,27.43
2019-05-21T11:27:23.936Z,28.47
2019-05-21T11:29:52.562Z,28.27
2019-05-21T11:32:21.009Z,28.27
2019-05-21T11:34:50.493Z,27.13
2019-05-21T11:37:19.181Z,26.57
2019-05-21T11:39:47.703Z,27.50
2019-05-21T11:42:16.180Z,28.67
2019-05-21T11:47:55.116Z,27.97
2019-05-21T11:50:23.660Z,28.70
2019-05-21T11:52:52.355Z,29.37
2019-05-21T11:55:21.011Z,29.70
2019-05-21T11:57:49.559Z,28.43
2019-05-21T12:00:21.672Z,28.33
2019-05-21T12:02:49.938Z,26.90
2019-05-21T12:05:18.503Z,27.83
2019-05-21T12:07:46.964Z,27.20
2019-05-21T12:10:15.537Z,28.00
2019-05-21T12:12:44.024Z,26.07
2019-05-21T12:15:12.885Z,26.97
2019-05-21T12:17:41.459Z,27.53
2019-05-21T12:20:10.308Z,27.93
2019-05-21T12:22:38.877Z,28.60
2019-05-21T12:25:07.765Z,27.50
2019-05-21T12:27:36.283Z,27.50
2019-05-21T12:30:05.598Z,27.37
2019-05-21T12:32:34.172Z,28.93
2019-05-21T12:35:03.886Z,28.83
2019-05-21T12:37:32.365Z,28.27
2019-05-21T12:40:00.848Z,29.07
2019-05-21T12:42:29.500Z,27.30
2019-05-21T12:44:57.926Z,29.20
2019-05-21T12:47:26.399Z,31.23
2019-05-21T12:49:54.896Z,30.43
2019-05-21T12:52:23.366Z,29.37
2019-05-21T12:54:52.105Z,28.83
2019-05-21T12:57:20.665Z,28.63
2019-05-21T12:59:49.145Z,30.20
2019-05-21T13:02:17.660Z,30.87
2019-05-21T13:04:46.190Z,31.10
2019-05-21T13:07:14.629Z,31.90
2019-05-21T13:09:43.105Z,31.90
2019-05-21T13:12:11.659Z,33.43
2019-05-21T13:14:40.213Z,32.23
2019-05-21T13:17:08.724Z,31.83
2019-05-21T13:19:37.359Z,29.13
2019-05-21T13:22:06.076Z,32.43
2019-05-21T13:24:34.691Z,30.63
2019-05-21T13:27:03.177Z,31.80
2019-05-21T13:29:31.721Z,30.63
2019-05-21T13:32:00.350Z,30.17
2019-05-21T13:34:28.834Z,31.07
2019-05-21T13:36:57.595Z,31.73
2019-05-21T13:39:26.123Z,30.90
2019-05-21T13:41:54.886Z,28.90
2019-05-21T13:44:23.344Z,29.23
2019-05-21T13:46:51.956Z,30.37
2019-05-21T13:49:20.427Z,28.07
2019-05-21T13:51:48.805Z,29.03
2019-05-21T13:54:17.263Z,28.80
2019-05-21T13:56:53.077Z,27.40
2019-05-21T13:59:21.559Z,27.50
2019-05-21T14:01:50.170Z,26.10
2019-05-21T14:04:18.770Z,26.07
2019-05-21T14:06:47.438Z,27.37
2019-05-21T14:09:16.265Z,26.87
2019-05-21T14:11:44.800Z,26.40
2019-05-21T14:14:13.347Z,26.53
2019-05-21T14:16:41.805Z,26.77
2019-05-21T14:19:10.672Z,25.97
2019-05-21T14:21:39.241Z,25.33
2019-05-21T14:24:07.775Z,25.27
2019-05-21T14:26:36.427Z,27.47
2019-05-21T14:29:05.061Z,26.03
2019-05-21T14:31:36.360Z,25.77
2019-05-21T14:34:05.084Z,25.50
2019-05-21T14:36:33.578Z,25.97
2019-05-21T14:39:06.277Z,25.13
2019-05-21T14:41:32.908Z,25.57
2019-05-21T14:44:01.560Z,24.70
2019-05-21T14:46:30.204Z,25.63
2019-05-21T14:48:58.994Z,26.20
2019-05-21T14:51:27.935Z,26.23
2019-05-21T14:54:02.936Z,23.97
2019-05-21T14:56:31.747Z,24.37
2019-05-21T14:59:00.507Z,25.63
2019-05-21T15:01:29.179Z,24.80
2019-05-21T15:03:57.763Z,24.67
2019-05-21T15:06:26.554Z,23.13
2019-05-21T15:08:57.778Z,24.13
2019-05-21T15:11:26.397Z,23.57
2019-05-21T15:13:55.278Z,23.10
2019-05-21T15:16:23.788Z,23.33
2019-05-21T15:18:52.357Z,25.93
2019-05-21T15:21:28.386Z,25.33
2019-05-21T15:24:04.820Z,29.87
2019-05-21T15:26:34.673Z,27.97
2019-05-21T15:29:03.292Z,32.57
2019-05-21T15:31:31.884Z,31.27
2019-05-21T15:34:00.550Z,34.47
2019-05-21T15:36:29.054Z,41.17
2019-05-21T15:38:57.826Z,50.57
2019-05-21T15:41:26.437Z,50.37
2019-05-21T15:43:55.332Z,51.73
2019-05-21T15:46:23.906Z,54.50
2019-05-21T15:48:52.399Z,51.70
2019-05-21T15:51:20.885Z,50.73
2019-05-21T15:53:49.388Z,44.17
2019-05-21T15:56:17.907Z,42.67
2019-05-21T15:58:46.314Z,43.03
2019-05-21T16:01:22.513Z,39.03
2019-05-21T16:03:50.976Z,36.53
2019-05-21T16:06:19.515Z,34.83
2019-05-21T16:08:48.361Z,32.87
2019-05-21T16:11:27.978Z,31.77
2019-05-21T16:13:47.596Z,31.07
2019-05-21T16:16:16.103Z,31.43
2019-05-21T16:18:44.705Z,31.50
2019-05-21T16:21:13.268Z,31.57
2019-05-21T16:23:41.803Z,30.20
2019-05-21T16:26:10.447Z,27.50
2019-05-21T16:28:39.023Z,28.43
2019-05-21T16:31:07.430Z,30.57
2019-05-21T16:33:35.949Z,32.27
2019-05-21T16:36:04.501Z,33.37
2019-05-21T16:38:33.450Z,33.10
2019-05-21T16:41:02.141Z,35.77
2019-05-21T16:43:30.627Z,34.63
2019-05-21T16:45:59.556Z,34.80
2019-05-21T16:48:28.312Z,35.67
2019-05-21T16:50:56.805Z,33.67
2019-05-21T16:53:25.313Z,33.23
2019-05-21T16:55:53.858Z,29.70
2019-05-21T16:58:22.368Z,33.00
2019-05-21T17:00:51.213Z,31.57
2019-05-21T17:03:19.803Z,27.87
2019-05-21T17:05:48.364Z,28.63
2019-05-21T17:08:16.865Z,29.57
2019-05-21T17:10:45.356Z,30.00
2019-05-21T17:13:14.094Z,30.10
2019-05-21T17:15:42.547Z,30.60
2019-05-21T17:18:10.946Z,29.40
2019-05-21T17:20:39.470Z,30.17
2019-05-21T17:23:08.132Z,29.70
2019-05-21T17:25:36.505Z,27.27
2019-05-21T17:28:11.949Z,28.40
2019-05-21T17:30:48.596Z,28.37
2019-05-21T17:33:17.951Z,29.07
2019-05-21T17:35:46.501Z,27.30
2019-05-21T17:38:15.003Z,29.17
2019-05-21T17:40:43.599Z,28.17
2019-05-21T17:43:12.239Z,28.47
2019-05-21T17:45:40.762Z,26.43
2019-05-21T17:48:09.304Z,28.80
2019-05-21T17:50:37.796Z,28.47
2019-05-21T17:53:06.425Z,27.53
2019-05-21T17:55:34.985Z,29.63
2019-05-21T17:58:03.564Z,27.43
2019-05-21T18:00:47.646Z,26.93
2019-05-21T18:03:16.863Z,26.33
2019-05-21T18:05:46.390Z,25.90
2019-05-21T18:08:17.067Z,24.17
2019-05-21T18:10:46.272Z,25.77
2019-05-21T18:13:15.091Z,26.13
2019-05-21T18:15:43.625Z,26.20
2019-05-21T18:18:13.257Z,25.07
2019-05-21T18:20:41.832Z,26.10
2019-05-21T18:23:10.774Z,26.20
2019-05-21T18:25:39.260Z,27.27
2019-05-21T18:28:07.722Z,26.00
2019-05-21T18:30:36.278Z,27.00
2019-05-21T18:33:05.192Z,26.13
2019-05-21T18:35:33.660Z,25.43
2019-05-21T18:38:02.158Z,25.43
2019-05-21T18:40:30.548Z,24.77
2019-05-21T18:42:58.984Z,24.60
2019-05-21T18:45:27.424Z,26.17
2019-05-21T18:47:55.795Z,24.63
2019-05-21T18:50:35.527Z,23.70
2019-05-21T18:52:54.528Z,24.13
2019-05-21T18:55:22.951Z,25.40
2019-05-21T18:57:51.343Z,24.93
2019-05-21T19:00:20.245Z,25.00
2019-05-21T19:02:49.048Z,23.87
2019-05-21T19:05:17.443Z,23.67
2019-05-21T19:07:46.138Z,24.33
2019-05-21T19:10:14.718Z,24.50
2019-05-21T19:12:43.157Z,24.10
2019-05-21T19:15:11.937Z,23.97
2019-05-21T19:17:40.687Z,24.63
2019-05-21T19:20:09.467Z,24.53
2019-05-21T19:22:38.189Z,25.03
2019-05-21T19:25:07.016Z,25.50
2019-05-21T19:27:35.458Z,24.17
2019-05-21T19:30:04.515Z,23.40
2019-05-21T19:32:32.980Z,24.73
2019-05-21T19:35:01.850Z,23.57
2019-05-21T19:37:30.282Z,22.90
2019-05-21T19:40:01.027Z,27.25
2019-05-21T19:42:29.599Z,24.03
2019-05-21T19:44:58.058Z,23.23
2019-05-21T19:47:26.638Z,23.47
2019-05-21T19:49:55.226Z,22.60
2019-05-21T19:52:23.762Z,21.60
2019-05-21T19:54:52.751Z,23.40
2019-05-21T19:57:22.985Z,27.93
2019-05-21T19:59:51.590Z,24.13
2019-05-21T20:02:21.214Z,23.80
2019-05-21T20:04:49.947Z,23.07
2019-05-21T20:07:20.246Z,24.23
2019-05-21T20:09:51.067Z,23.60
2019-05-21T20:12:20.030Z,25.63
2019-05-21T20:14:48.507Z,23.97
2019-05-21T20:17:17.733Z,24.73
2019-05-21T20:19:47.573Z,24.63
2019-05-21T20:22:37.231Z,26.63
2019-05-21T20:25:56.672Z,26.37
2019-05-21T20:28:23.703Z,25.07
2019-05-21T20:30:52.991Z,24.43
2019-05-21T20:33:21.576Z,26.73
2019-05-21T20:35:53.764Z,26.10
2019-05-21T20:38:23.484Z,27.17
2019-05-21T20:40:52.089Z,26.40
2019-05-21T20:43:20.898Z,25.07
2019-05-21T20:45:50.619Z,24.43
2019-05-21T20:48:21.365Z,22.93
2019-05-21T20:50:52.056Z,24.03
2019-05-21T20:53:20.739Z,23.00
2019-05-21T20:55:49.433Z,23.73
2019-05-21T20:58:19.704Z,21.50
2019-05-21T21:00:52.978Z,26.57
2019-05-21T21:03:21.815Z,26.60
2019-05-21T21:05:50.415Z,27.47
2019-05-21T21:08:19.423Z,30.03
2019-05-21T21:10:47.978Z,30.73
2019-05-21T21:13:16.455Z,29.37
2019-05-21T21:15:46.649Z,30.07
2019-05-21T21:18:15.319Z,30.53
2019-05-21T21:20:43.809Z,28.93
2019-05-21T21:23:14.179Z,29.50
2019-05-21T21:25:43.379Z,28.90
2019-05-21T21:28:11.889Z,30.20
2019-05-21T21:30:40.335Z,29.40
2019-05-21T21:33:10.296Z,30.77
2019-05-21T21:35:39.016Z,30.60
2019-05-21T21:38:09.767Z,29.73
2019-05-21T21:40:38.268Z,28.47
2019-05-21T21:43:08.090Z,32.00
2019-05-21T21:45:37.042Z,30.23
2019-05-21T21:48:05.795Z,30.70
2019-05-21T21:50:34.294Z,31.93
2019-05-21T21:53:02.902Z,30.33
2019-05-21T21:55:32.091Z,32.97
2019-05-21T21:58:00.712Z,31.40
2019-05-21T22:01:00.652Z,31.20
2019-05-21T22:03:31.888Z,32.60
2019-05-21T22:06:01.408Z,32.33
2019-05-21T22:08:31.075Z,32.67
2019-05-21T22:10:59.966Z,31.73
2019-05-21T22:13:28.403Z,32.23
2019-05-21T22:15:57.626Z,33.10
2019-05-21T22:18:27.300Z,31.37
2019-05-21T22:20:56.219Z,31.30
2019-05-21T22:23:24.958Z,33.03
2019-05-21T22:25:53.361Z,35.67
2019-05-21T22:28:22.024Z,33.57
2019-05-21T22:30:50.679Z,33.43
2019-05-21T22:33:19.239Z,34.80
2019-05-21T22:35:47.634Z,33.00
2019-05-21T22:38:16.123Z,34.20
2019-05-21T22:40:44.566Z,34.23
2019-05-21T22:43:13.225Z,32.33
2019-05-21T22:45:41.744Z,33.37
2019-05-21T22:48:10.259Z,34.13
2019-05-21T22:50:39.216Z,35.43
2019-05-21T22:53:07.931Z,35.63
2019-05-21T22:55:36.475Z,34.87
2019-05-21T22:58:05.715Z,35.87
2019-05-21T23:00:34.890Z,33.13
2019-05-21T23:03:03.527Z,34.80
2019-05-21T23:05:31.985Z,31.40
2019-05-21T23:08:01.720Z,31.87
2019-05-21T23:10:30.383Z,33.97
2019-05-21T23:12:58.856Z,34.77
2019-05-21T23:15:27.431Z,33.63
2019-05-21T23:17:56.068Z,33.50
2019-05-21T23:20:27.611Z,35.27
2019-05-21T23:22:56.726Z,34.97
2019-05-21T23:25:27.261Z,35.03
2019-05-21T23:27:56.021Z,35.43
2019-05-21T23:30:24.962Z,35.03
2019-05-21T23:32:53.491Z,35.13
2019-05-21T23:35:22.316Z,35.87
2019-05-21T23:37:51.174Z,35.40
2019-05-21T23:40:22.027Z,36.53
2019-05-21T23:42:50.708Z,36.10
2019-05-21T23:45:19.373Z,34.80
2019-05-21T23:47:48.050Z,36.20
2019-05-21T23:50:18.263Z,35.30
2019-05-21T23:52:46.903Z,36.17
2019-05-21T23:55:15.335Z,33.90
2019-05-21T23:57:44.692Z,34.13
